Time;durP1;ratioP1;P1;durP2;ratioP2;P2;SDS_P1;SDS_P2;PMS_P1;PMS_P2;Temp;Humidity;BMP_temperature;BMP_pressure;BME280_temperature;BME280_humidity;BME280_pressure;Samples;Min_cycle;Max_cycle;Signal;HPM_P1;HPM_P2
2023/03/12 00:00:42;;;;;;;1.73;1.53;;;;;;;;;;5072643;28;20471;-81
2023/03/12 00:03:08;;;;;;;3.73;1.93;;;;;;;;;;5072812;28;20472;-81
2023/03/12 00:05:38;;;;;;;3.70;1.80;;;;;;;;;;5072667;28;20963;-81
2023/03/12 00:08:04;;;;;;;8.77;1.60;;;;;;;;;;5073068;28;20473;-81
2023/03/12 00:10:30;;;;;;;1.33;1.20;;;;;;;;;;5072758;28;20505;-81
2023/03/12 00:12:56;;;;;;;2.60;1.60;;;;;;;;;;5072580;28;20461;-82
2023/03/12 00:15:22;;;;;;;2.53;1.50;;;;;;;;;;5072400;28;20415;-81
2023/03/12 00:17:48;;;;;;;2.40;2.20;;;;;;;;;;5071904;28;20510;-82
2023/03/12 00:20:14;;;;;;;5.97;2.30;;;;;;;;;;5072543;28;20576;-81
2023/03/12 00:22:40;;;;;;;3.43;2.97;;;;;;;;;;5072150;28;20453;-81
2023/03/12 00:25:10;;;;;;;3.00;2.40;;;;;;;;;;5071955;28;20905;-80
2023/03/12 00:27:36;;;;;;;2.23;1.87;;;;;;;;;;5072387;28;20415;-80
2023/03/12 00:30:03;;;;;;;2.40;2.03;;;;;;;;;;5071967;28;20778;-81
2023/03/12 00:32:31;;;;;;;2.77;1.57;;;;;;;;;;5073286;28;20824;-80
2023/03/12 00:34:57;;;;;;;4.87;2.37;;;;;;;;;;5071646;28;20416;-81
2023/03/12 00:37:23;;;;;;;3.40;2.30;;;;;;;;;;5071849;28;21037;-80
2023/03/12 00:39:49;;;;;;;3.00;1.67;;;;;;;;;;5071940;28;20900;-81
2023/03/12 00:42:16;;;;;;;4.37;2.40;;;;;;;;;;5071918;28;20434;-80
2023/03/12 00:44:43;;;;;;;4.50;2.50;;;;;;;;;;5017971;28;20974;-80
2023/03/12 00:47:09;;;;;;;6.70;3.43;;;;;;;;;;5060377;28;20423;-81
2023/03/12 00:49:35;;;;;;;4.80;3.50;;;;;;;;;;5071925;28;20420;-80
2023/03/12 00:52:01;;;;;;;4.57;2.80;;;;;;;;;;5072116;28;20417;-81
2023/03/12 00:54:26;;;;;;;5.73;2.97;;;;;;;;;;5072175;28;20458;-81
2023/03/12 00:56:52;;;;;;;6.23;2.60;;;;;;;;;;5072094;28;20751;-80
2023/03/12 00:59:18;;;;;;;6.10;2.30;;;;;;;;;;5073459;28;20419;-80
2023/03/12 01:01:44;;;;;;;3.73;2.50;;;;;;;;;;5071878;28;20501;-80
2023/03/12 01:04:10;;;;;;;5.30;3.87;;;;;;;;;;5075776;28;20402;-81
2023/03/12 01:06:36;;;;;;;5.93;3.97;;;;;;;;;;5077508;28;20408;-81
2023/03/12 01:09:04;;;;;;;5.63;4.60;;;;;;;;;;5075881;28;20427;-81
2023/03/12 01:11:31;;;;;;;6.43;4.17;;;;;;;;;;5076336;28;20537;-81
2023/03/12 01:13:57;;;;;;;6.90;4.50;;;;;;;;;;5075933;28;20417;-81
2023/03/12 01:16:26;;;;;;;4.37;3.77;;;;;;;;;;5077212;28;20446;-80
2023/03/12 01:18:52;;;;;;;4.17;3.20;;;;;;;;;;5076789;28;20477;-81
2023/03/12 01:21:18;;;;;;;6.00;3.50;;;;;;;;;;5075782;28;20565;-81
2023/03/12 01:23:44;;;;;;;5.50;3.77;;;;;;;;;;5077461;28;20503;-81
2023/03/12 01:26:10;;;;;;;4.20;3.60;;;;;;;;;;5075972;28;20518;-81
2023/03/12 01:28:39;;;;;;;4.30;3.33;;;;;;;;;;5077279;28;20411;-81
2023/03/12 01:31:08;;;;;;;6.00;4.00;;;;;;;;;;5077208;28;20565;-81
2023/03/12 01:33:37;;;;;;;5.47;3.00;;;;;;;;;;5076256;28;20464;-81
2023/03/12 01:36:06;;;;;;;4.83;3.50;;;;;;;;;;5077238;28;20411;-81
2023/03/12 01:38:32;;;;;;;5.53;4.07;;;;;;;;;;5076801;28;20427;-82
2023/03/12 01:40:58;;;;;;;4.93;2.90;;;;;;;;;;5075337;28;20815;-82
2023/03/12 01:43:32;;;;;;;4.53;3.17;;;;;;;;;;5075558;28;20490;-82
2023/03/12 01:46:22;;;;;;;3.80;2.57;;;;;;;;;;5075484;28;20506;-81
2023/03/12 01:49:07;;;;;;;4.07;3.30;;;;;;;;;;5075303;28;20503;-81
2023/03/12 01:51:46;;;;;;;3.97;3.30;;;;;;;;;;5075013;28;20799;-81
2023/03/12 01:54:15;;;;;;;8.33;3.27;;;;;;;;;;5058633;28;20418;-81
2023/03/12 01:56:42;;;;;;;7.23;3.40;;;;;;;;;;5075233;28;20923;-81
2023/03/12 01:59:12;;;;;;;3.73;2.73;;;;;;;;;;5076271;28;20499;-80
2023/03/12 02:01:39;;;;;;;7.00;3.93;;;;;;;;;;5076390;28;20471;-81
2023/03/12 02:04:05;;;;;;;2.43;2.23;;;;;;;;;;5075569;28;20411;-81
2023/03/12 02:06:42;;;;;;;4.40;2.33;;;;;;;;;;5076063;28;20462;-81
2023/03/12 02:09:09;;;;;;;4.70;3.40;;;;;;;;;;5075078;28;20415;-81
2023/03/12 02:11:35;;;;;;;4.03;3.07;;;;;;;;;;5062139;28;20415;-81
2023/03/12 02:14:01;;;;;;;3.83;2.50;;;;;;;;;;5027897;28;20466;-80
2023/03/12 02:16:36;;;;;;;6.20;2.50;;;;;;;;;;5055419;28;20425;-80
2023/03/12 02:19:15;;;;;;;2.67;2.43;;;;;;;;;;5055654;28;20467;-80
2023/03/12 02:21:41;;;;;;;3.13;2.53;;;;;;;;;;5054763;28;20475;-80
2023/03/12 02:24:26;;;;;;;3.70;2.80;;;;;;;;;;5055920;28;20932;-81
2023/03/12 02:26:52;;;;;;;3.23;2.23;;;;;;;;;;5055528;28;20533;-80
2023/03/12 02:29:21;;;;;;;7.03;3.13;;;;;;;;;;5055897;28;20451;-81
2023/03/12 02:31:52;;;;;;;6.03;3.57;;;;;;;;;;5055387;28;20412;-83
2023/03/12 02:34:18;;;;;;;2.80;2.33;;;;;;;;;;5054952;28;20500;-81
2023/03/12 02:36:44;;;;;;;4.10;2.90;;;;;;;;;;5055236;28;20401;-82
2023/03/12 02:39:11;;;;;;;7.30;3.93;;;;;;;;;;5064752;28;20416;-81
2023/03/12 02:41:42;;;;;;;4.57;3.17;;;;;;;;;;5073140;28;20485;-81
2023/03/12 02:44:18;;;;;;;6.93;3.20;;;;;;;;;;5073915;28;20412;-80
2023/03/12 02:46:45;;;;;;;4.43;2.63;;;;;;;;;;5073451;28;20420;-81
2023/03/12 02:49:12;;;;;;;8.33;3.47;;;;;;;;;;5074486;28;20408;-81
2023/03/12 02:51:38;;;;;;;5.73;3.50;;;;;;;;;;5073557;28;20777;-81
2023/03/12 02:54:05;;;;;;;4.30;2.90;;;;;;;;;;5073085;28;20431;-81
2023/03/12 02:56:31;;;;;;;5.23;3.43;;;;;;;;;;5074865;28;20405;-81
2023/03/12 02:58:57;;;;;;;3.50;3.00;;;;;;;;;;5074956;28;20412;-81
2023/03/12 03:01:23;;;;;;;6.40;3.43;;;;;;;;;;5074497;28;20473;-82
2023/03/12 03:03:49;;;;;;;5.23;3.40;;;;;;;;;;5074672;28;20824;-81
2023/03/12 03:06:15;;;;;;;4.43;3.23;;;;;;;;;;5073121;28;20442;-81
2023/03/12 03:08:41;;;;;;;6.97;4.80;;;;;;;;;;5073094;28;20415;-81
2023/03/12 03:11:08;;;;;;;4.20;3.77;;;;;;;;;;5074698;28;20407;-81
2023/03/12 03:13:34;;;;;;;7.13;3.17;;;;;;;;;;5073661;28;20930;-81
2023/03/12 03:16:00;;;;;;;5.73;3.30;;;;;;;;;;5074970;28;20883;-81
2023/03/12 03:18:26;;;;;;;3.80;3.40;;;;;;;;;;5072858;28;20483;-81
2023/03/12 03:20:56;;;;;;;3.83;3.43;;;;;;;;;;5073251;28;20478;-82
2023/03/12 03:23:22;;;;;;;5.97;4.70;;;;;;;;;;5072642;28;20423;-81
2023/03/12 03:25:48;;;;;;;4.67;3.30;;;;;;;;;;5073244;28;20414;-81
2023/03/12 03:28:14;;;;;;;3.90;2.83;;;;;;;;;;5072498;28;20776;-81
2023/03/12 03:30:43;;;;;;;4.50;3.00;;;;;;;;;;5073149;28;20423;-80
2023/03/12 03:33:09;;;;;;;5.13;3.93;;;;;;;;;;5073039;28;20424;-80
2023/03/12 03:35:35;;;;;;;4.57;3.60;;;;;;;;;;5073414;28;20442;-80
2023/03/12 03:38:01;;;;;;;4.30;3.50;;;;;;;;;;5074449;28;20428;-80
2023/03/12 03:40:27;;;;;;;5.00;3.57;;;;;;;;;;5074315;28;20477;-79
2023/03/12 03:42:53;;;;;;;6.00;3.70;;;;;;;;;;5025918;28;20464;-79
2023/03/12 03:45:19;;;;;;;3.93;3.50;;;;;;;;;;5052966;28;20412;-81
2023/03/12 03:47:45;;;;;;;5.53;3.90;;;;;;;;;;5053731;28;20431;-81
2023/03/12 03:50:11;;;;;;;5.50;3.43;;;;;;;;;;5054514;28;20418;-81
2023/03/12 03:52:37;;;;;;;4.93;3.13;;;;;;;;;;5054009;28;20582;-81
2023/03/12 03:55:04;;;;;;;3.40;3.10;;;;;;;;;;5054203;28;20513;-81
2023/03/12 03:57:30;;;;;;;7.83;4.37;;;;;;;;;;5054220;28;20415;-81
2023/03/12 03:59:57;;;;;;;4.17;3.57;;;;;;;;;;5053800;28;20412;-80
2023/03/12 04:02:27;;;;;;;4.43;3.20;;;;;;;;;;5053603;28;20807;-81
2023/03/12 04:04:56;;;;;;;6.07;3.50;;;;;;;;;;5052768;28;20408;-81
2023/03/12 04:07:22;;;;;;;4.43;3.77;;;;;;;;;;5052697;28;20930;-81
2023/03/12 04:09:48;;;;;;;8.07;3.40;;;;;;;;;;5052585;28;20418;-81
2023/03/12 04:12:14;;;;;;;4.10;3.70;;;;;;;;;;5053550;28;20505;-81
2023/03/12 04:14:41;;;;;;;4.80;4.40;;;;;;;;;;5052492;28;20444;-81
2023/03/12 04:17:07;;;;;;;3.90;3.30;;;;;;;;;;5069765;28;20425;-81
2023/03/12 04:19:33;;;;;;;8.87;3.83;;;;;;;;;;5072185;28;20474;-82
2023/03/12 04:21:59;;;;;;;5.70;4.80;;;;;;;;;;5072369;28;20476;-81
2023/03/12 04:24:25;;;;;;;9.53;4.23;;;;;;;;;;5072391;28;20491;-80
2023/03/12 04:26:51;;;;;;;5.13;4.17;;;;;;;;;;5073633;28;20413;-81
2023/03/12 04:29:17;;;;;;;7.53;4.60;;;;;;;;;;5072232;28;20403;-80
2023/03/12 04:31:44;;;;;;;4.70;3.50;;;;;;;;;;5075037;28;20428;-81
2023/03/12 04:34:10;;;;;;;3.70;3.23;;;;;;;;;;5072134;28;20949;-81
2023/03/12 04:36:36;;;;;;;12.13;5.30;;;;;;;;;;5073438;28;20411;-80
2023/03/12 04:39:05;;;;;;;6.67;4.07;;;;;;;;;;5073349;28;20453;-81
2023/03/12 04:41:31;;;;;;;5.60;4.17;;;;;;;;;;5073699;28;20519;-80
2023/03/12 04:43:57;;;;;;;6.33;3.40;;;;;;;;;;5073587;28;20799;-80
2023/03/12 04:46:26;;;;;;;6.20;3.40;;;;;;;;;;5072293;28;20477;-80
2023/03/12 04:48:52;;;;;;;4.67;3.47;;;;;;;;;;5030586;28;20871;-80
2023/03/12 04:51:18;;;;;;;5.40;4.47;;;;;;;;;;5073523;28;20447;-80
2023/03/12 04:54:02;;;;;;;6.80;4.20;;;;;;;;;;5073391;28;20419;-80
2023/03/12 04:56:28;;;;;;;6.00;3.67;;;;;;;;;;5073264;28;20399;-80
2023/03/12 04:58:54;;;;;;;5.80;4.50;;;;;;;;;;5073102;28;20473;-80
2023/03/12 05:01:31;;;;;;;8.07;4.67;;;;;;;;;;5073186;28;20903;-79
2023/03/12 05:03:56;;;;;;;5.97;3.80;;;;;;;;;;5071488;28;20425;-80
2023/03/12 05:06:23;;;;;;;4.80;4.30;;;;;;;;;;5073111;28;20900;-81
2023/03/12 05:08:49;;;;;;;4.47;3.70;;;;;;;;;;5073285;28;20407;-80
2023/03/12 05:11:15;;;;;;;4.97;4.50;;;;;;;;;;5071701;28;20515;-82
2023/03/12 05:13:45;;;;;;;9.50;4.20;;;;;;;;;;5072391;28;20748;-81
2023/03/12 05:16:11;;;;;;;4.23;3.83;;;;;;;;;;5071549;28;20435;-82
2023/03/12 05:18:37;;;;;;;8.83;4.90;;;;;;;;;;5072183;28;20943;-83
2023/03/12 05:21:04;;;;;;;5.07;3.40;;;;;;;;;;5072892;28;20472;-82
2023/03/12 05:23:32;;;;;;;6.27;4.63;;;;;;;;;;5071543;28;20463;-80
2023/03/12 05:25:58;;;;;;;13.80;5.53;;;;;;;;;;5073021;28;20416;-83
2023/03/12 05:28:27;;;;;;;4.10;3.40;;;;;;;;;;5072990;28;20485;-83
2023/03/12 05:30:54;;;;;;;6.13;5.37;;;;;;;;;;5072702;28;20400;-80
2023/03/12 05:33:20;;;;;;;5.17;3.70;;;;;;;;;;5072001;28;20418;-83
2023/03/12 05:35:46;;;;;;;7.10;3.90;;;;;;;;;;5072328;28;20413;-83
2023/03/12 05:38:13;;;;;;;7.17;3.90;;;;;;;;;;5072191;28;20409;-82
2023/03/12 05:40:39;;;;;;;6.27;5.03;;;;;;;;;;5070888;28;20597;-83
2023/03/12 05:43:05;;;;;;;6.70;5.00;;;;;;;;;;5070993;28;20932;-83
2023/03/12 05:45:32;;;;;;;5.00;3.93;;;;;;;;;;5072228;28;20408;-83
2023/03/12 05:47:58;;;;;;;4.90;4.30;;;;;;;;;;5071817;28;20411;-81
2023/03/12 05:50:24;;;;;;;5.17;4.50;;;;;;;;;;5073247;28;20426;-82
2023/03/12 05:52:51;;;;;;;8.33;4.60;;;;;;;;;;5074502;28;20428;-81
2023/03/12 05:55:17;;;;;;;4.57;4.17;;;;;;;;;;5074416;28;20420;-82
2023/03/12 05:57:42;;;;;;;8.17;5.50;;;;;;;;;;5074429;28;20443;-81
2023/03/12 06:00:09;;;;;;;7.90;5.90;;;;;;;;;;5075670;28;20842;-80
2023/03/12 06:02:35;;;;;;;9.37;5.37;;;;;;;;;;5075118;28;20452;-81
2023/03/12 06:05:01;;;;;;;8.33;5.80;;;;;;;;;;5074240;28;20446;-83
2023/03/12 06:07:27;;;;;;;9.30;7.27;;;;;;;;;;5074401;28;20417;-84
2023/03/12 06:09:53;;;;;;;6.27;5.23;;;;;;;;;;5074289;28;20399;-82
2023/03/12 06:12:18;;;;;;;10.60;5.37;;;;;;;;;;5075456;28;20446;-82
2023/03/12 06:14:44;;;;;;;6.83;4.80;;;;;;;;;;5074023;28;20419;-82
2023/03/12 06:17:10;;;;;;;11.30;6.00;;;;;;;;;;5073677;28;20411;-81
2023/03/12 06:19:36;;;;;;;8.13;5.83;;;;;;;;;;5075075;28;20465;-82
2023/03/12 06:22:03;;;;;;;6.37;4.60;;;;;;;;;;5075138;28;21030;-82
2023/03/12 06:24:28;;;;;;;15.63;10.30;;;;;;;;;;5075310;28;20437;-81
2023/03/12 06:26:54;;;;;;;9.00;6.70;;;;;;;;;;5033273;28;20466;-81
2023/03/12 06:29:29;;;;;;;14.20;7.90;;;;;;;;;;5073729;28;20813;-84
2023/03/12 06:31:55;;;;;;;36.60;20.47;;;;;;;;;;5076452;28;20474;-83
2023/03/12 06:34:21;;;;;;;35.33;21.83;;;;;;;;;;5074828;28;20898;-84
2023/03/12 06:36:47;;;;;;;21.67;13.40;;;;;;;;;;5074995;28;20410;-83
2023/03/12 06:39:13;;;;;;;13.23;9.93;;;;;;;;;;5073645;28;20419;-84
2023/03/12 06:41:40;;;;;;;20.10;10.60;;;;;;;;;;5073480;28;20477;-83
2023/03/12 06:44:07;;;;;;;12.90;6.63;;;;;;;;;;5074448;28;20549;-83
2023/03/12 06:46:34;;;;;;;12.93;9.70;;;;;;;;;;5073535;28;20426;-83
2023/03/12 06:49:02;;;;;;;10.07;5.93;;;;;;;;;;5073163;28;20984;-83
2023/03/12 06:51:31;;;;;;;6.70;5.57;;;;;;;;;;5073441;28;20423;-83
2023/03/12 06:53:56;;;;;;;7.47;6.17;;;;;;;;;;5074722;28;20407;-84
2023/03/12 06:56:35;;;;;;;7.37;5.40;;;;;;;;;;5073488;28;20430;-84
2023/03/12 06:59:04;;;;;;;9.03;5.00;;;;;;;;;;5074186;28;20421;-83
2023/03/12 07:01:30;;;;;;;9.37;5.73;;;;;;;;;;5056405;28;20483;-84
2023/03/12 07:04:00;;;;;;;7.77;5.70;;;;;;;;;;5074041;28;20432;-81
2023/03/12 07:06:29;;;;;;;5.60;5.07;;;;;;;;;;5072920;28;20482;-83
2023/03/12 07:08:56;;;;;;;7.00;5.83;;;;;;;;;;5074040;28;20411;-82
2023/03/12 07:11:23;;;;;;;8.90;6.00;;;;;;;;;;5074194;28;20516;-82
2023/03/12 07:13:50;;;;;;;11.73;5.47;;;;;;;;;;5072962;28;20923;-83
2023/03/12 07:16:16;;;;;;;6.43;5.83;;;;;;;;;;5056339;28;20427;-80
2023/03/12 07:18:43;;;;;;;9.80;6.07;;;;;;;;;;5072234;28;20473;-81
2023/03/12 07:21:15;;;;;;;7.33;6.07;;;;;;;;;;5074069;28;20552;-81
2023/03/12 07:23:45;;;;;;;7.50;4.77;;;;;;;;;;5072779;28;20910;-81
2023/03/12 07:26:11;;;;;;;6.60;4.00;;;;;;;;;;5031018;28;20439;-81
2023/03/12 07:28:37;;;;;;;7.97;5.17;;;;;;;;;;5074175;28;20888;-80
2023/03/12 07:31:08;;;;;;;6.23;5.60;;;;;;;;;;5073916;28;20434;-81
2023/03/12 07:33:34;;;;;;;4.20;3.83;;;;;;;;;;5073505;28;20410;-80
2023/03/12 07:36:01;;;;;;;6.20;4.17;;;;;;;;;;5072506;28;20421;-79
2023/03/12 07:38:36;;;;;;;6.17;5.00;;;;;;;;;;5073645;28;20417;-80
2023/03/12 07:41:02;;;;;;;7.97;4.37;;;;;;;;;;5073793;28;20479;-79
2023/03/12 07:43:30;;;;;;;7.13;4.77;;;;;;;;;;5073468;28;20927;-80
2023/03/12 07:45:56;;;;;;;4.17;3.77;;;;;;;;;;5072263;28;20453;-79
2023/03/12 07:48:22;;;;;;;3.50;3.13;;;;;;;;;;5073289;28;20437;-81
2023/03/12 07:50:48;;;;;;;5.93;3.43;;;;;;;;;;5072339;28;20440;-82
2023/03/12 07:53:14;;;;;;;5.20;4.10;;;;;;;;;;5073503;28;20411;-82
2023/03/12 07:55:43;;;;;;;5.70;3.93;;;;;;;;;;5072149;28;20418;-79
2023/03/12 07:58:15;;;;;;;7.67;3.90;;;;;;;;;;5073367;28;20411;-80
2023/03/12 08:00:41;;;;;;;5.20;3.67;;;;;;;;;;5071992;28;20491;-80
2023/03/12 08:03:07;;;;;;;4.43;2.73;;;;;;;;;;5071659;28;20932;-80
2023/03/12 08:05:33;;;;;;;6.20;2.43;;;;;;;;;;5071948;28;20491;-80
2023/03/12 08:07:59;;;;;;;4.63;3.70;;;;;;;;;;5073135;28;20772;-79
2023/03/12 08:10:25;;;;;;;4.60;2.53;;;;;;;;;;5071982;28;20412;-79
2023/03/12 08:12:51;;;;;;;3.67;3.33;;;;;;;;;;5072635;28;20944;-80
2023/03/12 08:15:17;;;;;;;5.57;3.20;;;;;;;;;;5073193;28;20920;-80
2023/03/12 08:17:43;;;;;;;3.67;2.50;;;;;;;;;;5072577;28;20403;-79
2023/03/12 08:20:10;;;;;;;4.87;3.00;;;;;;;;;;5073059;28;20497;-80
2023/03/12 08:22:36;;;;;;;4.33;2.13;;;;;;;;;;5073099;28;20452;-80
2023/03/12 08:25:03;;;;;;;2.30;1.57;;;;;;;;;;5061791;28;20406;-79
2023/03/12 08:27:29;;;;;;;7.93;2.67;;;;;;;;;;5044126;28;20433;-80
2023/03/12 08:29:55;;;;;;;4.03;2.13;;;;;;;;;;5071685;28;20428;-79
2023/03/12 08:32:21;;;;;;;4.80;4.20;;;;;;;;;;5071333;28;20483;-80
2023/03/12 08:34:47;;;;;;;4.47;2.20;;;;;;;;;;5071518;28;20425;-80
2023/03/12 08:37:13;;;;;;;5.10;1.83;;;;;;;;;;5072935;28;20410;-80
2023/03/12 08:39:39;;;;;;;3.03;1.77;;;;;;;;;;5072833;28;20416;-83
2023/03/12 08:42:06;;;;;;;5.60;2.80;;;;;;;;;;5071461;28;20475;-83
2023/03/12 08:44:32;;;;;;;3.20;2.03;;;;;;;;;;5071768;28;20423;-85
2023/03/12 08:46:58;;;;;;;3.07;2.73;;;;;;;;;;5072748;28;20515;-86
2023/03/12 08:49:24;;;;;;;9.60;2.93;;;;;;;;;;5073257;28;20840;-86
2023/03/12 08:51:51;;;;;;;4.00;3.00;;;;;;;;;;5071942;28;20461;-85
2023/03/12 08:54:17;;;;;;;4.70;2.20;;;;;;;;;;5071615;28;20516;-85
2023/03/12 08:56:45;;;;;;;2.83;2.03;;;;;;;;;;5073513;28;20433;-85
2023/03/12 08:59:22;;;;;;;6.63;2.70;;;;;;;;;;5071452;28;20415;-84
2023/03/12 09:01:49;;;;;;;5.70;2.30;;;;;;;;;;5067289;28;20549;-84
2023/03/12 09:04:15;;;;;;;2.70;1.83;;;;;;;;;;5071398;28;20930;-84
2023/03/12 09:06:43;;;;;;;4.50;3.07;;;;;;;;;;5072783;28;20421;-85
2023/03/12 09:09:12;;;;;;;7.00;3.10;;;;;;;;;;5071433;28;20931;-83
2023/03/12 09:11:41;;;;;;;2.43;1.70;;;;;;;;;;5071255;28;20410;-84
2023/03/12 09:14:07;;;;;;;4.20;2.23;;;;;;;;;;5054827;28;20418;-82
2023/03/12 09:16:36;;;;;;;4.07;3.10;;;;;;;;;;5053893;28;20984;-83
2023/03/12 09:19:02;;;;;;;4.07;2.10;;;;;;;;;;5071026;28;20451;-79
2023/03/12 09:21:28;;;;;;;5.47;2.83;;;;;;;;;;5071109;28;20477;-80
2023/03/12 09:23:54;;;;;;;5.83;3.20;;;;;;;;;;5071095;28;20415;-80
2023/03/12 09:26:20;;;;;;;3.47;2.13;;;;;;;;;;5032570;28;20447;-80
2023/03/12 09:28:46;;;;;;;8.10;4.70;;;;;;;;;;5074862;28;20423;-80
2023/03/12 09:31:12;;;;;;;6.00;3.40;;;;;;;;;;5074546;28;20903;-80
2023/03/12 09:33:38;;;;;;;10.57;5.43;;;;;;;;;;5074782;28;20416;-80
2023/03/12 09:36:04;;;;;;;10.77;5.40;;;;;;;;;;5074730;28;20505;-80
2023/03/12 09:38:31;;;;;;;7.50;5.13;;;;;;;;;;5074791;28;20523;-80
2023/03/12 09:40:57;;;;;;;7.00;4.23;;;;;;;;;;5076066;28;20466;-80
2023/03/12 09:43:23;;;;;;;8.73;5.00;;;;;;;;;;5074606;28;20419;-80
2023/03/12 09:45:49;;;;;;;11.03;6.03;;;;;;;;;;5074645;28;20424;-80
2023/03/12 09:48:19;;;;;;;12.07;7.10;;;;;;;;;;5075522;28;20490;-80
2023/03/12 09:50:48;;;;;;;6.20;3.80;;;;;;;;;;5074470;28;20435;-79
2023/03/12 09:53:20;;;;;;;3.53;2.90;;;;;;;;;;5074482;28;20881;-80
2023/03/12 09:55:47;;;;;;;7.07;3.90;;;;;;;;;;5075625;28;20434;-80
2023/03/12 09:58:24;;;;;;;6.10;3.53;;;;;;;;;;5074375;28;20992;-80
2023/03/12 10:00:55;;;;;;;11.63;5.70;;;;;;;;;;5074209;28;20463;-80
2023/03/12 10:03:42;;;;;;;7.87;4.87;;;;;;;;;;5075175;28;20423;-80
2023/03/12 10:06:11;;;;;;;6.20;3.27;;;;;;;;;;5059829;28;20451;-80
2023/03/12 10:08:46;;;;;;;9.50;4.90;;;;;;;;;;5066152;28;20496;-80
2023/03/12 10:11:23;;;;;;;3.50;2.53;;;;;;;;;;5072949;28;20413;-80
2023/03/12 10:14:01;;;;;;;9.60;5.17;;;;;;;;;;5075377;28;20409;-80
2023/03/12 10:16:41;;;;;;;10.70;7.07;;;;;;;;;;5074861;28;20854;-80
2023/03/12 10:19:07;;;;;;;6.40;2.90;;;;;;;;;;5073761;28;20503;-80
2023/03/12 10:21:49;;;;;;;5.90;3.53;;;;;;;;;;5075078;28;20502;-81
2023/03/12 10:24:22;;;;;;;9.47;5.20;;;;;;;;;;5078137;28;20442;-81
2023/03/12 10:26:53;;;;;;;19.97;9.27;;;;;;;;;;5032460;28;20441;-80
2023/03/12 10:29:25;;;;;;;5.30;3.13;;;;;;;;;;5071943;28;20931;-80
2023/03/12 10:32:02;;;;;;;5.43;3.77;;;;;;;;;;5074393;28;20423;-81
2023/03/12 10:34:31;;;;;;;4.70;2.20;;;;;;;;;;5075025;28;20415;-80
2023/03/12 10:37:03;;;;;;;4.63;2.93;;;;;;;;;;5072802;28;20410;-81
2023/03/12 10:39:28;;;;;;;4.60;2.37;;;;;;;;;;5073203;28;20410;-80
2023/03/12 10:41:55;;;;;;;3.73;2.17;;;;;;;;;;5072674;28;20559;-81
2023/03/12 10:44:22;;;;;;;4.63;2.20;;;;;;;;;;5073555;28;20936;-81
2023/03/12 10:46:52;;;;;;;2.57;2.30;;;;;;;;;;5074432;28;20404;-80
2023/03/12 10:49:25;;;;;;;2.63;1.90;;;;;;;;;;5073217;28;20453;-81
2023/03/12 10:51:56;;;;;;;5.83;2.30;;;;;;;;;;5073196;28;20450;-80
2023/03/12 10:54:26;;;;;;;2.97;2.07;;;;;;;;;;5074514;28;20766;-81
2023/03/12 10:56:52;;;;;;;2.20;1.63;;;;;;;;;;5073218;28;20929;-80
2023/03/12 10:59:25;;;;;;;4.30;2.67;;;;;;;;;;5073217;28;20499;-80
2023/03/12 11:01:51;;;;;;;5.60;2.40;;;;;;;;;;5072629;28;20837;-81
2023/03/12 11:04:19;;;;;;;3.43;2.17;;;;;;;;;;5074426;28;20407;-81
2023/03/12 11:07:08;;;;;;;4.77;2.00;;;;;;;;;;5073066;28;20417;-81
2023/03/12 11:09:34;;;;;;;6.43;2.00;;;;;;;;;;5036298;28;20414;-80
2023/03/12 11:12:00;;;;;;;2.93;1.80;;;;;;;;;;5056445;28;20420;-81
2023/03/12 11:14:28;;;;;;;6.03;2.27;;;;;;;;;;5072946;28;20417;-81
2023/03/12 11:16:55;;;;;;;4.60;2.20;;;;;;;;;;5072465;28;20432;-78
2023/03/12 11:19:34;;;;;;;6.00;1.93;;;;;;;;;;5073967;28;20455;-79
2023/03/12 11:22:06;;;;;;;7.03;2.60;;;;;;;;;;5072356;28;20482;-79
2023/03/12 11:24:32;;;;;;;2.30;1.77;;;;;;;;;;5072390;28;20411;-80
2023/03/12 11:27:04;;;;;;;5.00;2.50;;;;;;;;;;5029147;28;20444;-80
2023/03/12 11:29:38;;;;;;;3.60;2.00;;;;;;;;;;5072122;28;20883;-81
2023/03/12 11:32:07;;;;;;;2.90;1.77;;;;;;;;;;5071979;28;20416;-79
2023/03/12 11:34:36;;;;;;;3.67;1.47;;;;;;;;;;5070672;28;20834;-78
2023/03/12 11:37:10;;;;;;;3.93;1.73;;;;;;;;;;5073444;28;20476;-79
2023/03/12 11:39:51;;;;;;;2.47;1.90;;;;;;;;;;5071005;28;20821;-78
2023/03/12 11:42:21;;;;;;;4.43;1.50;;;;;;;;;;5070821;28;20476;-79
2023/03/12 11:44:54;;;;;;;6.90;1.67;;;;;;;;;;5070475;28;20493;-79
2023/03/12 11:47:23;;;;;;;10.40;4.23;;;;;;;;;;5070930;28;20409;-79
2023/03/12 11:50:00;;;;;;;18.23;8.30;;;;;;;;;;5070385;28;20448;-79
2023/03/12 11:52:44;;;;;;;19.13;10.47;;;;;;;;;;5073529;28;20790;-79
2023/03/12 11:55:09;;;;;;;10.20;3.73;;;;;;;;;;5067879;28;20440;-79
2023/03/12 11:57:48;;;;;;;7.80;3.87;;;;;;;;;;5072882;28;20444;-79
2023/03/12 12:00:20;;;;;;;4.80;1.53;;;;;;;;;;5069723;28;20635;-79
2023/03/12 12:02:55;;;;;;;6.20;2.93;;;;;;;;;;5073012;28;20414;-77
2023/03/12 12:05:21;;;;;;;3.17;1.90;;;;;;;;;;5073314;28;20758;-79
2023/03/12 12:07:47;;;;;;;4.33;1.80;;;;;;;;;;5072050;28;20491;-81
2023/03/12 12:10:38;;;;;;;12.40;5.93;;;;;;;;;;5071928;28;20411;-81
2023/03/12 12:13:10;;;;;;;7.60;3.70;;;;;;;;;;5072120;28;20439;-81
2023/03/12 12:15:36;;;;;;;3.33;1.83;;;;;;;;;;5073265;28;20483;-81
2023/03/12 12:18:10;;;;;;;6.17;3.13;;;;;;;;;;5071211;28;20583;-79
2023/03/12 12:20:43;;;;;;;7.90;3.40;;;;;;;;;;5073088;28;20810;-83
2023/03/12 12:23:26;;;;;;;12.20;5.83;;;;;;;;;;5071830;28;20416;-82
2023/03/12 12:25:56;;;;;;;7.60;3.17;;;;;;;;;;5073055;28;20396;-81
2023/03/12 12:28:41;;;;;;;10.40;4.73;;;;;;;;;;5031093;28;20451;-82
2023/03/12 12:31:22;;;;;;;4.87;2.10;;;;;;;;;;5072530;28;20416;-82
2023/03/12 12:33:55;;;;;;;7.57;4.07;;;;;;;;;;5071808;28;20423;-83
2023/03/12 12:36:23;;;;;;;19.63;9.23;;;;;;;;;;5071978;28;20929;-83
2023/03/12 12:39:00;;;;;;;4.50;2.20;;;;;;;;;;5071746;28;20420;-83
2023/03/12 12:41:27;;;;;;;8.20;2.40;;;;;;;;;;5071848;28;20483;-83
2023/03/12 12:43:57;;;;;;;5.07;1.90;;;;;;;;;;5072725;28;20424;-82
2023/03/12 12:46:25;;;;;;;2.10;1.23;;;;;;;;;;5071130;28;20577;-81
2023/03/12 12:49:24;;;;;;;4.23;1.00;;;;;;;;;;5071516;28;20421;-81
2023/03/12 12:51:53;;;;;;;2.37;0.83;;;;;;;;;;5028540;28;20464;-81
2023/03/12 12:54:23;;;;;;;25.23;6.63;;;;;;;;;;5072650;28;20412;-81
2023/03/12 12:56:49;;;;;;;2.30;1.30;;;;;;;;;;5072624;28;20415;-80
2023/03/12 12:59:38;;;;;;;7.60;2.00;;;;;;;;;;5073949;28;20502;-81
2023/03/12 13:02:05;;;;;;;2.27;1.60;;;;;;;;;;5076499;28;20483;-80
2023/03/12 13:04:35;;;;;;;2.50;0.97;;;;;;;;;;5075377;28;20472;-80
2023/03/12 13:07:04;;;;;;;2.70;0.93;;;;;;;;;;5076677;28;20417;-80
2023/03/12 13:09:43;;;;;;;2.43;1.30;;;;;;;;;;5076756;28;20841;-80
2023/03/12 13:12:16;;;;;;;1.87;1.33;;;;;;;;;;5076678;28;20739;-80
2023/03/12 13:14:43;;;;;;;1.03;0.30;;;;;;;;;;5075423;28;20466;-80
2023/03/12 13:17:20;;;;;;;2.67;1.23;;;;;;;;;;5074810;28;20446;-81
2023/03/12 13:19:50;;;;;;;1.77;0.77;;;;;;;;;;5077620;28;20454;-83
2023/03/12 13:22:25;;;;;;;3.10;1.20;;;;;;;;;;5070732;28;20463;-81
2023/03/12 13:25:13;;;;;;;2.20;1.20;;;;;;;;;;5071775;28;20410;-83
2023/03/12 13:27:41;;;;;;;1.80;0.70;;;;;;;;;;5073829;28;20498;-82
2023/03/12 13:30:27;;;;;;;2.70;0.90;;;;;;;;;;5052488;28;20471;-82
2023/03/12 13:33:00;;;;;;;2.97;1.03;;;;;;;;;;5059220;28;20409;-83
2023/03/12 13:35:26;;;;;;;3.27;1.23;;;;;;;;;;5072007;28;20400;-82
2023/03/12 13:37:55;;;;;;;4.10;1.37;;;;;;;;;;5072604;28;20927;-82
2023/03/12 13:40:30;;;;;;;2.03;0.80;;;;;;;;;;5072622;28;20410;-86
2023/03/12 13:43:12;;;;;;;1.63;1.00;;;;;;;;;;5072278;28;20438;-82
2023/03/12 13:46:09;;;;;;;5.00;1.47;;;;;;;;;;5071771;28;20472;-82
2023/03/12 13:48:36;;;;;;;1.40;1.30;;;;;;;;;;5058578;28;20550;-81
2023/03/12 13:51:12;;;;;;;3.53;1.67;;;;;;;;;;5072570;28;20407;-82
2023/03/12 13:53:39;;;;;;;1.60;1.10;;;;;;;;;;5071175;28;20777;-83
2023/03/12 13:56:07;;;;;;;2.80;0.90;;;;;;;;;;5073360;28;20476;-80
2023/03/12 13:58:43;;;;;;;5.17;1.20;;;;;;;;;;5072059;28;20946;-79
2023/03/12 14:01:14;;;;;;;2.53;1.43;;;;;;;;;;5071942;28;20486;-81
2023/03/12 14:03:48;;;;;;;2.80;0.80;;;;;;;;;;5074586;28;20414;-78
2023/03/12 14:06:17;;;;;;;4.67;1.73;;;;;;;;;;5074409;28;20412;-78
2023/03/12 14:09:01;;;;;;;1.20;0.90;;;;;;;;;;5074435;28;20803;-78
2023/03/12 14:11:33;;;;;;;1.90;1.17;;;;;;;;;;5072143;28;20443;-78
2023/03/12 14:14:20;;;;;;;1.80;1.13;;;;;;;;;;5074478;28;20416;-78
2023/03/12 14:16:48;;;;;;;1.93;1.50;;;;;;;;;;5074063;28;20412;-79
2023/03/12 14:19:15;;;;;;;3.33;1.23;;;;;;;;;;5072812;28;20505;-78
2023/03/12 14:21:43;;;;;;;1.00;0.67;;;;;;;;;;5072973;28;20471;-79
2023/03/12 14:24:22;;;;;;;2.03;1.30;;;;;;;;;;5074177;28;20760;-81
2023/03/12 14:26:48;;;;;;;3.37;1.40;;;;;;;;;;5074832;28;20423;-79
2023/03/12 14:29:26;;;;;;;3.00;1.23;;;;;;;;;;5075333;28;20416;-80
2023/03/12 14:31:54;;;;;;;6.00;1.00;;;;;;;;;;5034018;28;20426;-80
2023/03/12 14:34:21;;;;;;;4.60;3.07;;;;;;;;;;5075506;28;20442;-80
2023/03/12 14:37:06;;;;;;;2.10;0.80;;;;;;;;;;5075228;28;20400;-80
2023/03/12 14:39:38;;;;;;;0.97;0.90;;;;;;;;;;5075328;28;20911;-81
2023/03/12 14:42:08;;;;;;;2.10;1.17;;;;;;;;;;5074972;28;20597;-80
2023/03/12 14:44:38;;;;;;;1.60;1.37;;;;;;;;;;5075040;28;20411;-80
2023/03/12 14:47:11;;;;;;;1.40;1.00;;;;;;;;;;5073716;28;20423;-81
2023/03/12 14:49:41;;;;;;;1.43;0.90;;;;;;;;;;5075626;28;20444;-79
2023/03/12 14:52:07;;;;;;;3.23;1.03;;;;;;;;;;5073775;28;20418;-80